Time;durP1;ratioP1;P1;durP2;ratioP2;P2;SDS_P1;SDS_P2;PMS_P1;PMS_P2;Temp;Humidity;BMP_temperature;BMP_pressure;BME280_temperature;BME280_humidity;BME280_pressure;Samples;Min_cycle;Max_cycle;Signal;HPM_P1;HPM_P2
2022/06/22 00:02:06;;;;;;;5.80;5.20;;;21.60;31.50;;;;;;5052566;28;20194;-68
2022/06/22 00:04:36;;;;;;;10.63;7.20;;;21.50;31.90;;;;;;5052616;28;20437;-69
2022/06/22 00:07:16;;;;;;;6.93;6.23;;;21.50;32.00;;;;;;5052327;28;20445;-67
2022/06/22 00:09:43;;;;;;;6.93;6.10;;;21.50;32.50;;;;;;5052075;28;20479;-69
2022/06/22 00:12:22;;;;;;;6.40;5.80;;;21.40;32.40;;;;;;5051221;28;20862;-68
2022/06/22 00:14:51;;;;;;;6.00;5.50;;;21.40;32.60;;;;;;5052292;28;20492;-69
2022/06/22 00:17:39;;;;;;;7.40;6.17;;;21.40;32.90;;;;;;5052304;28;20409;-67
2022/06/22 00:20:13;;;;;;;7.73;6.67;;;21.40;32.90;;;;;;5048732;28;20428;-68
2022/06/22 00:22:51;;;;;;;5.50;4.97;;;21.40;32.90;;;;;;5052117;28;20824;-68
2022/06/22 00:25:38;;;;;;;8.47;6.50;;;21.40;33.00;;;;;;5052152;28;20424;-68
2022/06/22 00:28:27;;;;;;;7.50;6.80;;;21.40;32.80;;;;;;5051425;28;20508;-68
2022/06/22 00:31:13;;;;;;;7.60;6.90;;;21.40;32.50;;;;;;5051917;28;20914;-69
2022/06/22 00:33:38;;;;;;;8.00;7.20;;;21.50;32.10;;;;;;5052156;28;20462;-69
2022/06/22 00:36:18;;;;;;;7.97;6.77;;;21.40;32.50;;;;;;5051861;28;20409;-69
2022/06/22 00:38:44;;;;;;;7.67;5.53;;;21.30;32.80;;;;;;5051561;28;20186;-69
2022/06/22 00:41:20;;;;;;;9.23;7.00;;;21.30;32.20;;;;;;5051801;28;20421;-69
2022/06/22 00:43:46;;;;;;;8.00;6.37;;;21.30;31.50;;;;;;5051924;28;20547;-69
2022/06/22 00:46:15;;;;;;;8.53;6.17;;;21.40;31.30;;;;;;5051898;28;20448;-68
2022/06/22 00:48:41;;;;;;;6.43;5.83;;;21.40;31.60;;;;;;5051576;28;20471;-69
2022/06/22 00:51:13;;;;;;;7.17;6.20;;;21.50;31.30;;;;;;5051685;28;20852;-69
2022/06/22 00:53:42;;;;;;;6.73;6.07;;;21.50;31.70;;;;;;5051730;28;20177;-68
2022/06/22 00:56:52;;;;;;;7.50;6.80;;;21.50;32.20;;;;;;5050390;28;20417;-69
2022/06/22 00:59:35;;;;;;;9.83;6.47;;;21.50;31.50;;;;;;5029099;28;20821;-69
2022/06/22 01:02:37;;;;;;;7.97;7.17;;;21.60;31.80;;;;;;5029406;28;20476;-69
2022/06/22 01:05:15;;;;;;;5.83;5.27;;;21.60;31.10;;;;;;5043778;28;20975;-69
2022/06/22 01:08:09;;;;;;;8.57;6.43;;;21.60;30.80;;;;;;5051622;28;20823;-69
2022/06/22 01:10:45;;;;;;;7.13;6.43;;;21.60;31.40;;;;;;5051825;28;20420;-69
2022/06/22 01:13:23;;;;;;;8.30;6.47;;;21.60;31.10;;;;;;5050383;28;20421;-68
2022/06/22 01:15:54;;;;;;;7.47;6.70;;;21.70;31.10;;;;;;5051508;28;20420;-69
2022/06/22 01:18:38;;;;;;;7.10;6.40;;;21.70;30.70;;;;;;5051241;28;20401;-69
2022/06/22 01:21:14;;;;;;;6.70;5.40;;;21.70;30.70;;;;;;5050213;28;20444;-68
2022/06/22 01:24:17;;;;;;;7.30;6.57;;;21.80;30.80;;;;;;5051514;28;20427;-67
2022/06/22 01:27:08;;;;;;;9.23;4.93;;;21.80;30.80;;;;;;5051323;28;20456;-68
2022/06/22 01:29:35;;;;;;;6.37;5.80;;;21.80;30.80;;;;;;5051114;28;20432;-68
2022/06/22 01:32:23;;;;;;;6.90;5.77;;;21.80;30.80;;;;;;5051233;28;20507;-68
2022/06/22 01:34:50;;;;;;;6.20;5.70;;;21.70;30.70;;;;;;5051256;28;20413;-67
2022/06/22 01:37:27;;;;;;;6.30;5.70;;;21.60;30.60;;;;;;5051268;28;20988;-67
2022/06/22 01:40:15;;;;;;;9.17;7.30;;;21.60;31.10;;;;;;5053122;28;20409;-68
2022/06/22 01:42:45;;;;;;;6.63;5.93;;;21.60;31.50;;;;;;5055054;28;20428;-68
2022/06/22 01:45:17;;;;;;;7.57;6.87;;;21.60;31.90;;;;;;5055136;28;20409;-68
2022/06/22 01:47:54;;;;;;;11.10;5.97;;;21.60;31.20;;;;;;5054932;28;20463;-68
2022/06/22 01:50:38;;;;;;;7.00;6.30;;;21.60;32.10;;;;;;5055039;28;20409;-68
2022/06/22 01:53:24;;;;;;;11.30;8.17;;;21.70;31.80;;;;;;5054731;28;20452;-68
2022/06/22 01:56:15;;;;;;;8.33;6.73;;;21.70;32.60;;;;;;5054983;28;20405;-68
2022/06/22 01:59:01;;;;;;;10.43;6.77;;;21.70;31.80;;;;;;5054688;28;20751;-67
2022/06/22 02:01:45;;;;;;;8.10;7.40;;;21.70;32.60;;;;;;5054688;28;20424;-67
2022/06/22 02:04:29;;;;;;;8.73;7.93;;;21.60;31.80;;;;;;5055022;28;20420;-68
2022/06/22 02:07:44;;;;;;;7.20;6.50;;;21.50;32.50;;;;;;5054691;28;21049;-68
2022/06/22 02:10:23;;;;;;;7.20;6.50;;;21.50;32.40;;;;;;5015419;28;20449;-68
2022/06/22 02:13:11;;;;;;;7.50;6.77;;;21.50;33.00;;;;;;5032209;28;20441;-67
2022/06/22 02:15:40;;;;;;;7.50;6.70;;;21.50;33.70;;;;;;5048040;28;20413;-67
2022/06/22 02:18:14;;;;;;;7.90;6.50;;;21.50;33.90;;;;;;5054452;28;20405;-67
2022/06/22 02:20:40;;;;;;;7.27;6.57;;;21.50;34.20;;;;;;5054928;28;20495;-67
2022/06/22 02:23:23;;;;;;;9.43;6.00;;;21.40;35.80;;;;;;5054211;28;20508;-68
2022/06/22 02:26:09;;;;;;;7.83;7.03;;;21.40;35.10;;;;;;5054252;28;20408;-68
2022/06/22 02:28:35;;;;;;;7.97;6.60;;;21.40;34.40;;;;;;5053998;28;20818;-69
2022/06/22 02:31:01;;;;;;;7.87;6.20;;;21.40;34.20;;;;;;5054685;28;20639;-68
2022/06/22 02:33:28;;;;;;;8.30;7.50;;;21.40;34.40;;;;;;5054065;28;20270;-68
2022/06/22 02:35:56;;;;;;;15.43;8.57;;;21.30;35.00;;;;;;5054290;28;20409;-68
2022/06/22 02:38:21;;;;;;;9.07;7.13;;;21.20;35.70;;;;;;5054049;28;20496;-66
2022/06/22 02:46:23;;;;;;;8.27;7.47;;;21.10;35.50;;;;;;5053987;28;20590;-68
2022/06/22 02:48:55;;;;;;;8.30;7.50;;;21.10;35.50;;;;;;5052376;28;20436;-70
2022/06/22 02:51:28;;;;;;;6.70;6.10;;;21.10;35.60;;;;;;5053688;28;20443;-68
2022/06/22 02:53:57;;;;;;;7.80;6.23;;;21.10;35.10;;;;;;5053785;28;20492;-68
2022/06/22 02:56:32;;;;;;;9.93;7.90;;;21.10;35.50;;;;;;5053625;28;20459;-69
2022/06/22 02:58:58;;;;;;;11.03;7.53;;;21.10;34.90;;;;;;5053437;28;20491;-68
2022/06/22 03:01:29;;;;;;;8.30;6.30;;;21.10;35.50;;;;;;5053606;28;20440;-68
2022/06/22 03:03:59;;;;;;;7.63;6.93;;;21.00;35.40;;;;;;5053667;28;20232;-68
2022/06/22 03:06:29;;;;;;;8.10;6.03;;;21.10;35.60;;;;;;5053665;28;20441;-68
2022/06/22 03:08:58;;;;;;;8.70;7.87;;;21.10;35.50;;;;;;5053272;28;20424;-69
2022/06/22 03:11:23;;;;;;;6.77;6.17;;;21.10;34.90;;;;;;5053357;28;20426;-68
2022/06/22 03:13:58;;;;;;;8.73;7.73;;;21.10;35.40;;;;;;5053587;28;20916;-69
2022/06/22 03:16:31;;;;;;;7.70;7.00;;;21.00;35.40;;;;;;5053442;28;20269;-69
2022/06/22 03:19:00;;;;;;;8.90;6.87;;;21.00;35.40;;;;;;5053235;28;20783;-67
2022/06/22 03:21:28;;;;;;;6.37;5.77;;;20.90;35.40;;;;;;5053118;28;20452;-69
2022/06/22 03:24:17;;;;;;;7.87;7.17;;;21.00;35.50;;;;;;5053258;28;20417;-68
2022/06/22 03:26:53;;;;;;;6.60;5.87;;;20.90;35.50;;;;;;5053355;28;20660;-69
2022/06/22 03:29:27;;;;;;;17.27;8.37;;;20.90;35.80;;;;;;5053074;28;20427;-68
2022/06/22 03:32:18;;;;;;;8.23;6.80;;;20.60;37.10;;;;;;5053037;28;20424;-68
2022/06/22 03:35:12;;;;;;;7.87;7.07;;;20.70;37.40;;;;;;5050187;28;20829;-70
2022/06/22 03:37:42;;;;;;;10.90;7.67;;;20.70;37.20;;;;;;5052958;28;20425;-69
2022/06/22 03:40:19;;;;;;;8.67;6.93;;;20.70;37.40;;;;;;5052712;28;20421;-69
2022/06/22 03:43:00;;;;;;;9.27;8.37;;;20.80;37.20;;;;;;5052857;28;21168;-69
2022/06/22 03:45:38;;;;;;;10.60;7.50;;;20.80;37.00;;;;;;5052886;28;20781;-70
2022/06/22 03:48:15;;;;;;;10.40;6.57;;;20.90;36.60;;;;;;5052490;28;20995;-68
2022/06/22 03:50:54;;;;;;;8.40;7.60;;;20.90;36.50;;;;;;5051852;28;20436;-69
2022/06/22 03:53:46;;;;;;;7.73;6.77;;;20.90;36.40;;;;;;5083770;23;20496;-67
2022/06/22 03:56:17;;;;;;;8.73;5.63;;;21.00;36.10;;;;;;5072318;28;20473;-68
2022/06/22 03:58:46;;;;;;;8.17;7.47;;;21.00;36.40;;;;;;5072546;28;20396;-66
2022/06/22 04:01:13;;;;;;;7.00;6.00;;;21.00;36.30;;;;;;5072556;28;20408;-67
2022/06/22 04:03:40;;;;;;;6.33;5.73;;;21.10;35.60;;;;;;5072350;28;20490;-67
2022/06/22 04:06:06;;;;;;;6.97;6.30;;;21.20;35.70;;;;;;5072506;28;20455;-67
2022/06/22 04:08:37;;;;;;;6.27;5.63;;;21.30;35.30;;;;;;5072069;28;20435;-66
2022/06/22 04:11:25;;;;;;;8.63;7.63;;;21.30;35.10;;;;;;5071127;28;21018;-67
2022/06/22 04:14:13;;;;;;;7.20;6.33;;;21.40;34.90;;;;;;5072357;28;20419;-68
2022/06/22 04:16:46;;;;;;;6.60;6.00;;;21.50;34.20;;;;;;5065624;28;20425;-68
2022/06/22 04:19:20;;;;;;;6.60;6.00;;;21.60;33.80;;;;;;5072066;28;20415;-67
2022/06/22 04:21:51;;;;;;;10.93;7.83;;;21.50;34.10;;;;;;5072157;28;20485;-68
2022/06/22 04:24:24;;;;;;;7.40;6.67;;;21.60;33.80;;;;;;5072164;28;20929;-67
2022/06/22 04:26:59;;;;;;;7.07;6.47;;;21.70;33.60;;;;;;5072111;28;20551;-67
2022/06/22 04:29:52;;;;;;;8.00;7.00;;;21.80;33.10;;;;;;5070915;28;20435;-67
2022/06/22 04:32:25;;;;;;;6.40;5.80;;;21.80;32.90;;;;;;5072011;28;20431;-67
2022/06/22 04:34:57;;;;;;;7.97;7.27;;;21.70;33.40;;;;;;5072388;28;20443;-67
2022/06/22 04:37:34;;;;;;;9.87;8.57;;;21.70;33.40;;;;;;5072143;28;20771;-67
2022/06/22 04:40:32;;;;;;;6.40;5.77;;;21.70;34.10;;;;;;5071867;28;20408;-67
2022/06/22 04:43:03;;;;;;;11.30;8.73;;;21.70;34.10;;;;;;5072003;28;20495;-67
2022/06/22 04:45:38;;;;;;;11.13;7.60;;;21.70;34.10;;;;;;5071845;28;20418;-66
2022/06/22 04:48:09;;;;;;;8.07;7.27;;;21.50;35.00;;;;;;5071900;28;20817;-67
2022/06/22 04:50:37;;;;;;;7.80;6.93;;;21.50;34.80;;;;;;5071786;28;20412;-67
2022/06/22 04:53:04;;;;;;;8.87;7.77;;;21.50;34.80;;;;;;5071479;28;20475;-66
2022/06/22 04:55:33;;;;;;;9.17;7.60;;;21.50;34.30;;;;;;5070347;28;20424;-67
2022/06/22 04:58:03;;;;;;;9.23;8.10;;;21.50;34.40;;;;;;5071471;28;20420;-67
2022/06/22 05:00:32;;;;;;;7.03;6.00;;;21.50;35.00;;;;;;5071540;28;20836;-66
2022/06/22 05:03:13;;;;;;;6.80;6.00;;;21.50;34.60;;;;;;5071672;28;20949;-68
2022/06/22 05:05:39;;;;;;;7.43;6.73;;;21.50;34.70;;;;;;5071514;28;20419;-66
2022/06/22 05:08:24;;;;;;;5.90;5.10;;;21.60;34.30;;;;;;5071052;28;20556;-67
2022/06/22 05:11:12;;;;;;;8.53;7.67;;;21.70;34.40;;;;;;5071523;28;20548;-68
2022/06/22 05:13:50;;;;;;;8.70;6.27;;;21.90;33.90;;;;;;5070123;28;20420;-67
2022/06/22 05:16:20;;;;;;;7.10;6.40;;;21.90;34.00;;;;;;5075442;28;20440;-67
2022/06/22 05:18:47;;;;;;;7.60;5.40;;;22.20;33.20;;;;;;5075387;28;20495;-66
2022/06/22 05:21:28;;;;;;;6.80;5.30;;;22.50;32.50;;;;;;5075422;28;20772;-67
2022/06/22 05:23:56;;;;;;;7.00;6.40;;;22.80;31.70;;;;;;5075516;28;20411;-67
2022/06/22 05:26:24;;;;;;;10.70;7.33;;;23.20;30.20;;;;;;5075192;28;20448;-66
2022/06/22 05:29:02;;;;;;;6.43;5.93;;;23.60;29.40;;;;;;5075114;28;20408;-66
2022/06/22 05:31:31;;;;;;;7.80;7.13;;;24.50;28.30;;;;;;5075314;28;20766;-66
2022/06/22 05:34:05;;;;;;;8.93;8.27;;;25.30;25.40;;;;;;5075332;28;20412;-66
2022/06/22 05:36:37;;;;;;;8.83;8.13;;;25.50;24.00;;;;;;5075278;28;20457;-66
2022/06/22 05:39:05;;;;;;;11.17;10.23;;;25.40;23.30;;;;;;5074893;28;20913;-66
2022/06/22 05:41:33;;;;;;;9.73;8.80;;;25.20;22.10;;;;;;5075067;28;20424;-66
2022/06/22 05:44:04;;;;;;;9.43;8.53;;;24.30;23.90;;;;;;5074313;28;20427;-66
2022/06/22 05:46:31;;;;;;;12.00;9.63;;;23.70;25.60;;;;;;5075074;28;20459;-66
2022/06/22 05:48:57;;;;;;;9.43;8.43;;;23.30;27.50;;;;;;5074774;28;20408;-66
2022/06/22 05:51:27;;;;;;;8.63;7.83;;;23.00;27.90;;;;;;5075102;28;20419;-66
2022/06/22 05:54:10;;;;;;;9.53;8.53;;;22.50;29.60;;;;;;5074988;28;20502;-65
2022/06/22 05:56:52;;;;;;;10.90;8.77;;;22.70;29.90;;;;;;5074961;28;20400;-66
2022/06/22 05:59:34;;;;;;;8.27;7.50;;;22.40;31.00;;;;;;5074869;28;20412;-66
2022/06/22 06:02:18;;;;;;;10.50;8.47;;;22.50;30.80;;;;;;5074869;28;20427;-66
2022/06/22 06:04:57;;;;;;;9.37;8.53;;;22.10;32.50;;;;;;5074931;28;20764;-66
2022/06/22 06:07:32;;;;;;;18.30;10.60;;;22.00;33.30;;;;;;5073911;28;20466;-66
2022/06/22 06:09:58;;;;;;;11.60;10.37;;;21.50;35.90;;;;;;5074552;28;20414;-67
2022/06/22 06:12:50;;;;;;;10.23;9.30;;;21.30;37.40;;;;;;5073211;28;20440;-66
2022/06/22 06:15:15;;;;;;;8.33;7.53;;;21.50;37.60;;;;;;5074812;28;20420;-68
2022/06/22 06:17:45;;;;;;;10.50;8.70;;;21.60;37.80;;;;;;5074702;28;20906;-67
2022/06/22 06:20:23;;;;;;;8.80;8.00;;;21.50;38.00;;;;;;5074520;28;20170;-67
2022/06/22 06:22:55;;;;;;;9.83;8.37;;;21.70;37.70;;;;;;5075054;28;20444;-67
2022/06/22 06:28:20;;;;;;;8.63;7.73;;;21.30;39.90;;;;;;5067681;28;20772;-67
2022/06/22 06:30:49;;;;;;;8.60;6.50;;;21.40;37.90;;;;;;5059972;28;20920;-66
2022/06/22 06:33:23;;;;;;;9.47;7.50;;;21.40;36.60;;;;;;5074213;28;20416;-67
2022/06/22 06:35:53;;;;;;;7.90;7.13;;;21.40;37.10;;;;;;5064417;28;20908;-66
2022/06/22 06:38:27;;;;;;;7.63;6.83;;;20.80;41.00;;;;;;5069535;28;20511;-67
2022/06/22 06:41:08;;;;;;;14.63;8.30;;;20.50;41.40;;;;;;5065027;28;20927;-66
2022/06/22 06:43:39;;;;;;;10.00;7.43;;;20.20;45.90;;;;;;5069181;28;20425;-66
2022/06/22 06:46:15;;;;;;;9.33;8.40;;;20.20;49.00;;;;;;5053803;28;20413;-67
2022/06/22 06:48:45;;;;;;;8.90;7.60;;;20.30;49.10;;;;;;5053749;28;20412;-68
2022/06/22 06:51:14;;;;;;;8.83;7.93;;;20.40;45.40;;;;;;5054084;28;20397;-67
2022/06/22 06:53:47;;;;;;;9.00;8.10;;;20.30;47.00;;;;;;5072258;28;20521;-67
2022/06/22 06:56:22;;;;;;;10.07;9.07;;;20.30;45.40;;;;;;5069529;28;20408;-67
2022/06/22 06:58:52;;;;;;;10.67;7.93;;;20.50;45.60;;;;;;5063967;28;20727;-68
2022/06/22 07:01:27;;;;;;;9.60;8.60;;;20.80;45.80;;;;;;5086650;28;20420;-68
2022/06/22 07:03:59;;;;;;;8.87;7.87;;;21.10;42.90;;;;;;5049029;28;21093;-68
2022/06/22 07:06:29;;;;;;;6.80;5.90;;;21.30;41.50;;;;;;5050156;28;20556;-68
2022/06/22 07:09:10;;;;;;;7.80;7.00;;;21.70;36.10;;;;;;5048838;28;20440;-68
2022/06/22 07:11:39;;;;;;;7.73;7.03;;;21.90;34.20;;;;;;5050774;28;20455;-68
2022/06/22 07:14:18;;;;;;;5.80;5.20;;;22.10;35.40;;;;;;5060680;28;20440;-67
2022/06/22 07:16:43;;;;;;;6.33;5.83;;;22.40;36.00;;;;;;5053891;28;20796;-67
2022/06/22 07:19:22;;;;;;;10.67;7.40;;;22.80;34.40;;;;;;5048437;28;20416;-69
2022/06/22 07:22:00;;;;;;;12.00;6.80;;;23.20;31.90;;;;;;5050180;28;20213;-69
2022/06/22 07:24:33;;;;;;;9.37;8.40;;;23.60;28.70;;;;;;5068826;28;20459;-69
2022/06/22 07:27:05;;;;;;;8.50;7.60;;;24.10;28.10;;;;;;5066992;28;20474;-69
2022/06/22 07:29:52;;;;;;;10.03;8.27;;;24.50;28.30;;;;;;5068491;28;20927;-69
2022/06/22 07:32:32;;;;;;;8.73;8.03;;;24.70;27.50;;;;;;5050777;28;20470;-69
2022/06/22 07:35:38;;;;;;;8.47;7.67;;;24.70;27.50;;;;;;5049560;28;20417;-69
2022/06/22 07:38:23;;;;;;;9.73;8.83;;;24.90;26.70;;;;;;5068371;28;20785;-69
2022/06/22 07:43:34;;;;;;;10.40;9.50;;;25.70;24.70;;;;;;5048847;28;20428;-69
2022/06/22 07:46:00;;;;;;;11.53;10.43;;;26.30;23.90;;;;;;5048690;28;20421;-68
2022/06/22 07:48:28;;;;;;;10.60;9.87;;;26.80;21.80;;;;;;5079216;28;20189;-69
2022/06/22 07:50:57;;;;;;;12.80;11.80;;;27.60;21.30;;;;;;5087615;28;20446;-68
2022/06/22 07:53:45;;;;;;;14.17;13.33;;;28.00;18.20;;;;;;5067108;28;20518;-69
2022/06/22 07:56:46;;;;;;;14.13;13.23;;;28.30;17.70;;;;;;5066384;28;20425;-68
2022/06/22 07:59:17;;;;;;;13.60;12.73;;;28.30;17.20;;;;;;5068601;28;21056;-69
2022/06/22 08:01:46;;;;;;;14.77;13.90;;;28.20;16.40;;;;;;5063064;28;20483;-69
2022/06/22 08:04:29;;;;;;;14.00;13.20;;;27.90;16.80;;;;;;5080815;28;20498;-69
2022/06/22 08:07:01;;;;;;;14.93;13.80;;;27.60;17.20;;;;;;5066804;28;20469;-68
2022/06/22 08:09:34;;;;;;;13.50;12.70;;;27.40;16.80;;;;;;5065996;28;20468;-71
2022/06/22 08:12:03;;;;;;;13.67;12.50;;;27.20;17.90;;;;;;5071628;28;20436;-71
2022/06/22 08:14:38;;;;;;;11.77;11.10;;;27.00;18.00;;;;;;5065217;28;20482;-70
2022/06/22 08:17:09;;;;;;;12.63;11.93;;;26.90;18.70;;;;;;5051437;28;20424;-71
2022/06/22 08:19:35;;;;;;;12.83;12.03;;;26.90;18.80;;;;;;5051033;28;20411;-70
2022/06/22 08:22:04;;;;;;;12.10;11.00;;;26.80;18.80;;;;;;5064088;28;20942;-70
2022/06/22 08:24:33;;;;;;;12.13;11.10;;;26.60;19.50;;;;;;5071862;28;20482;-71
2022/06/22 08:26:59;;;;;;;11.67;10.80;;;26.50;20.30;;;;;;5070680;28;20901;-71
2022/06/22 08:29:27;;;;;;;12.23;11.20;;;26.40;20.70;;;;;;5071863;28;20408;-71
2022/06/22 08:32:15;;;;;;;13.00;12.00;;;26.20;20.60;;;;;;5060641;28;20799;-71
2022/06/22 08:34:48;;;;;;;12.40;11.60;;;25.90;20.90;;;;;;5051773;28;20483;-71
2022/06/22 08:37:21;;;;;;;11.93;10.90;;;25.80;21.60;;;;;;5051956;28;20425;-71
2022/06/22 08:39:54;;;;;;;10.57;9.77;;;25.60;22.10;;;;;;5050269;28;20431;-71
2022/06/22 08:42:40;;;;;;;9.80;8.90;;;25.40;22.90;;;;;;5066000;28;20531;-71
2022/06/22 08:45:24;;;;;;;10.87;10.00;;;25.10;23.50;;;;;;5072079;28;20415;-71
2022/06/22 08:48:04;;;;;;;10.90;9.90;;;25.00;24.20;;;;;;5069906;28;20509;-70
2022/06/22 08:51:01;;;;;;;8.80;8.10;;;24.80;24.20;;;;;;5071755;28;20456;-70
2022/06/22 08:53:51;;;;;;;16.07;9.23;;;24.70;24.20;;;;;;5071575;28;20946;-70
2022/06/22 08:56:38;;;;;;;10.53;9.73;;;24.60;24.30;;;;;;5056047;28;20421;-70
2022/06/22 08:59:12;;;;;;;12.17;10.67;;;24.60;24.10;;;;;;5051428;28;20413;-71
2022/06/22 09:02:09;;;;;;;9.63;8.97;;;24.60;23.80;;;;;;5051635;28;20464;-71
2022/06/22 09:04:46;;;;;;;15.53;10.20;;;24.70;23.50;;;;;;5052567;28;20405;-70
2022/06/22 09:07:20;;;;;;;10.03;9.30;;;24.70;23.30;;;;;;5070236;28;20463;-70
2022/06/22 09:10:20;;;;;;;9.63;8.90;;;24.80;22.70;;;;;;5070217;28;20961;-71
2022/06/22 09:13:06;;;;;;;9.30;8.67;;;25.00;23.00;;;;;;5071455;28;20507;-71
2022/06/22 09:15:39;;;;;;;15.87;9.97;;;25.30;22.40;;;;;;5062882;28;20421;-71
2022/06/22 09:18:32;;;;;;;11.53;10.73;;;25.60;21.20;;;;;;5051362;28;20405;-71
2022/06/22 09:21:34;;;;;;;11.90;11.07;;;25.80;20.40;;;;;;5051534;28;20958;-71
2022/06/22 09:24:41;;;;;;;11.10;10.30;;;26.00;19.40;;;;;;5051586;28;20419;-72
2022/06/22 09:27:20;;;;;;;11.80;10.70;;;26.30;19.60;;;;;;5009288;28;20542;-72
2022/06/22 09:30:22;;;;;;;11.30;10.60;;;26.40;19.60;;;;;;5009190;28;20786;-72
2022/06/22 09:33:05;;;;;;;12.17;11.43;;;26.70;19.10;;;;;;5042958;28;20444;-71
2022/06/22 09:35:56;;;;;;;13.00;12.20;;;27.00;18.40;;;;;;5050303;28;20428;-72
2022/06/22 09:38:38;;;;;;;13.60;12.60;;;27.10;17.70;;;;;;5049554;28;20417;-71
2022/06/22 09:41:06;;;;;;;13.80;11.50;;;27.00;18.10;;;;;;5071037;28;20431;-72
2022/06/22 09:44:13;;;;;;;13.23;12.43;;;26.90;18.90;;;;;;5063914;28;20455;-71
2022/06/22 09:47:00;;;;;;;12.37;11.67;;;27.40;18.50;;;;;;5050237;28;20555;-71
2022/06/22 09:49:47;;;;;;;13.33;11.97;;;27.50;18.10;;;;;;5050004;28;20839;-70
2022/06/22 09:52:44;;;;;;;13.53;12.47;;;27.90;17.80;;;;;;5069928;23;20992;-70
2022/06/22 09:58:39;;;;;;;13.73;12.83;;;28.20;15.60;;;;;;5050745;28;20408;-68
2022/06/22 10:01:16;;;;;;;13.53;12.53;;;28.30;16.00;;;;;;5053026;28;20416;-69
2022/06/22 10:04:08;;;;;;;13.80;12.90;;;27.90;16.00;;;;;;5061273;28;20490;-69
2022/06/22 10:07:05;;;;;;;15.87;14.43;;;28.00;15.10;;;;;;5074967;28;20580;-69
2022/06/22 10:09:49;;;;;;;13.77;12.80;;;27.90;15.60;;;;;;5074078;28;20981;-70
2022/06/22 10:12:53;;;;;;;13.30;12.40;;;27.70;15.80;;;;;;5070652;28;20849;-69
2022/06/22 10:15:34;;;;;;;13.43;12.43;;;27.60;16.40;;;;;;5053394;28;20441;-69
2022/06/22 10:18:24;;;;;;;12.80;12.00;;;27.30;17.30;;;;;;5054255;28;20452;-69
2022/06/22 10:21:04;;;;;;;14.00;13.00;;;27.10;17.10;;;;;;5054462;28;20990;-69
2022/06/22 10:23:55;;;;;;;13.20;12.20;;;27.00;17.10;;;;;;5054173;28;20440;-69
2022/06/22 10:26:59;;;;;;;14.00;13.00;;;26.90;17.40;;;;;;5054271;28;20460;-69
2022/06/22 10:29:57;;;;;;;12.97;12.17;;;26.80;18.10;;;;;;5054158;28;20456;-69
2022/06/22 10:33:04;;;;;;;13.00;12.20;;;26.80;17.70;;;;;;5063992;28;20484;-69
2022/06/22 10:35:58;;;;;;;12.20;11.50;;;26.80;17.60;;;;;;5031986;28;20513;-70
2022/06/22 10:38:58;;;;;;;13.27;12.20;;;26.70;17.70;;;;;;5031591;28;20418;-70
2022/06/22 10:45:09;;;;;;;11.53;10.67;;;26.50;18.60;;;;;;5074128;28;20432;-70
2022/06/22 10:47:53;;;;;;;11.57;10.77;;;26.30;19.10;;;;;;5044433;28;20534;-67
2022/06/22 10:50:33;;;;;;;11.13;10.33;;;26.30;19.50;;;;;;5057288;28;20440;-68
2022/06/22 10:53:31;;;;;;;12.13;11.40;;;26.20;20.50;;;;;;5055726;28;20460;-67
2022/06/22 10:56:30;;;;;;;11.40;10.50;;;25.90;20.40;;;;;;5044785;28;20428;-67
2022/06/22 10:59:30;;;;;;;11.27;10.37;;;25.50;20.20;;;;;;5053620;28;20931;-68
2022/06/22 11:02:21;;;;;;;9.40;8.87;;;25.40;20.60;;;;;;5052256;28;20457;-68
2022/06/22 11:05:06;;;;;;;9.87;8.90;;;25.40;20.90;;;;;;5053837;28;20461;-68
2022/06/22 11:07:49;;;;;;;9.57;8.87;;;25.30;20.10;;;;;;5053770;28;20467;-68
2022/06/22 11:10:37;;;;;;;9.57;8.10;;;25.20;20.40;;;;;;5068316;28;20416;-66
2022/06/22 11:13:31;;;;;;;8.77;8.10;;;25.20;20.50;;;;;;5072111;28;20436;-68
2022/06/22 11:16:35;;;;;;;9.10;8.50;;;25.10;21.00;;;;;;5073601;28;20423;-66
2022/06/22 11:19:12;;;;;;;8.87;8.27;;;25.00;21.20;;;;;;5064492;28;20436;-68
2022/06/22 11:22:02;;;;;;;11.00;7.10;;;24.90;22.10;;;;;;5071979;28;20502;-67
2022/06/22 11:24:44;;;;;;;7.73;6.97;;;24.90;22.40;;;;;;5073287;28;20400;-68
2022/06/22 11:30:51;;;;;;;12.17;7.90;;;24.90;23.10;;;;;;5072993;28;20410;-67
2022/06/22 11:33:29;;;;;;;9.23;8.43;;;25.00;22.50;;;;;;5072989;28;20422;-67
2022/06/22 11:36:07;;;;;;;8.03;7.53;;;25.00;22.10;;;;;;5073209;28;20404;-67
2022/06/22 11:38:54;;;;;;;7.97;7.40;;;25.00;22.10;;;;;;5072838;28;20416;-67
2022/06/22 11:41:45;;;;;;;9.03;8.30;;;25.00;22.00;;;;;;5072929;28;20400;-67
2022/06/22 11:45:49;;;;;;;9.17;8.37;;;25.10;21.30;;;;;;5067560;28;20487;-67
2022/06/22 11:47:44;;;;;;;8.67;8.17;;;25.20;21.40;;;;;;5052611;28;20506;-67
2022/06/22 11:50:25;;;;;;;9.57;8.87;;;25.50;20.70;;;;;;5051434;28;20423;-67
2022/06/22 11:53:07;;;;;;;10.00;9.13;;;25.80;20.40;;;;;;5052891;28;21022;-68
2022/06/22 11:55:41;;;;;;;10.67;9.87;;;26.20;19.40;;;;;;5064095;28;20425;-67
2022/06/22 11:58:37;;;;;;;9.80;9.20;;;26.50;18.60;;;;;;5066920;28;20796;-71
2022/06/22 12:01:25;;;;;;;9.30;8.80;;;26.70;18.50;;;;;;5052902;28;20448;-68
2022/06/22 12:04:28;;;;;;;11.27;10.50;;;26.70;18.60;;;;;;5069329;28;20432;-66
2022/06/22 12:07:21;;;;;;;10.73;10.13;;;26.70;18.10;;;;;;5072530;28;20451;-68
2022/06/22 12:10:11;;;;;;;11.07;10.17;;;26.60;18.10;;;;;;5072157;28;20408;-68
2022/06/22 12:13:11;;;;;;;10.90;9.93;;;26.60;18.20;;;;;;5071637;28;20420;-68
2022/06/22 12:16:01;;;;;;;12.60;11.47;;;26.40;19.00;;;;;;5052552;28;20410;-69
2022/06/22 12:19:04;;;;;;;11.67;11.00;;;26.50;18.00;;;;;;5052041;28;20782;-69
2022/06/22 12:21:53;;;;;;;11.87;10.77;;;26.40;16.50;;;;;;5052362;28;20499;-68
2022/06/22 12:24:51;;;;;;;9.40;8.67;;;26.20;18.20;;;;;;5051887;28;20447;-68
2022/06/22 12:27:39;;;;;;;12.07;10.20;;;26.20;18.40;;;;;;5051859;28;20456;-68
2022/06/22 12:30:26;;;;;;;13.50;10.07;;;26.30;17.50;;;;;;5051885;28;20417;-68
2022/06/22 12:33:13;;;;;;;10.10;9.30;;;26.60;17.40;;;;;;5052122;28;20417;-69
2022/06/22 12:35:50;;;;;;;11.03;10.27;;;27.10;17.40;;;;;;5055902;28;20417;-69
2022/06/22 12:38:40;;;;;;;12.63;11.83;;;27.60;16.70;;;;;;5062598;28;21731;-68
2022/06/22 12:41:26;;;;;;;12.27;11.57;;;27.70;15.10;;;;;;5051858;28;20432;-69
2022/06/22 12:44:20;;;;;;;13.63;12.57;;;28.00;12.50;;;;;;5054066;28;20425;-68
2022/06/22 12:47:24;;;;;;;12.47;11.70;;;28.20;13.50;;;;;;5061593;28;20464;-69
2022/06/22 12:50:05;;;;;;;14.53;13.20;;;28.40;13.50;;;;;;5052629;28;20854;-68
2022/06/22 12:52:39;;;;;;;14.87;12.93;;;28.60;13.30;;;;;;5050535;28;20460;-68
2022/06/22 12:55:28;;;;;;;14.30;12.37;;;28.60;13.00;;;;;;5058406;28;20431;-69
2022/06/22 12:58:22;;;;;;;15.03;13.97;;;28.70;12.90;;;;;;5062647;28;20424;-72
2022/06/22 13:00:48;;;;;;;14.00;12.80;;;28.60;12.30;;;;;;5058514;28;21000;-69
2022/06/22 13:03:22;;;;;;;14.07;12.73;;;28.50;12.50;;;;;;5059330;28;20451;-69
2022/06/22 13:05:48;;;;;;;13.00;12.30;;;28.60;12.90;;;;;;5057946;28;20412;-69
2022/06/22 13:08:23;;;;;;;14.77;13.57;;;28.80;11.80;;;;;;5051193;28;20465;-69
2022/06/22 13:10:55;;;;;;;13.63;12.63;;;29.10;11.00;;;;;;5051565;28;20417;-69
2022/06/22 13:13:48;;;;;;;14.53;13.57;;;29.10;11.20;;;;;;5051400;28;20432;-69
2022/06/22 13:16:27;;;;;;;13.63;12.90;;;29.10;11.70;;;;;;5051558;28;20432;-69
2022/06/22 13:19:18;;;;;;;14.80;13.80;;;28.90;11.70;;;;;;5057724;28;20439;-69
2022/06/22 13:22:24;;;;;;;13.80;12.73;;;28.90;11.00;;;;;;5059273;28;20456;-69
2022/06/22 13:25:23;;;;;;;12.80;12.20;;;28.80;11.10;;;;;;5051506;28;20420;-69
2022/06/22 13:28:23;;;;;;;13.10;12.30;;;28.80;11.50;;;;;;5063236;28;20448;-69
2022/06/22 13:30:57;;;;;;;13.50;12.77;;;28.50;11.50;;;;;;5051205;28;20885;-69
2022/06/22 13:33:22;;;;;;;16.17;13.10;;;28.60;10.90;;;;;;5063375;28;20436;-69
2022/06/22 13:36:06;;;;;;;14.30;13.40;;;28.70;10.70;;;;;;5072978;28;20408;-69
2022/06/22 13:39:09;;;;;;;14.93;13.53;;;28.80;11.20;;;;;;5067914;28;20235;-69
2022/06/22 13:41:57;;;;;;;13.87;12.67;;;29.00;9.70;;;;;;5068242;28;20430;-69
2022/06/22 13:44:45;;;;;;;13.13;12.17;;;28.80;8.80;;;;;;5073363;28;20424;-69
2022/06/22 13:47:20;;;;;;;14.20;13.20;;;28.70;9.60;;;;;;5054630;28;20817;-69
2022/06/22 13:50:30;;;;;;;14.10;13.40;;;28.70;10.00;;;;;;5055737;28;20481;-69
2022/06/22 13:53:07;;;;;;;13.57;12.77;;;28.80;9.40;;;;;;5050552;28;20967;-69
2022/06/22 13:56:24;;;;;;;14.43;13.53;;;28.80;9.90;;;;;;5051674;28;20409;-69
2022/06/22 13:58:54;;;;;;;15.43;13.93;;;29.00;9.70;;;;;;5042393;28;20482;-67
2022/06/22 14:01:26;;;;;;;15.67;14.07;;;29.00;10.00;;;;;;5066456;28;20407;-76
2022/06/22 14:04:08;;;;;;;15.10;13.90;;;29.10;10.30;;;;;;5091256;28;20435;-73
2022/06/22 14:06:40;;;;;;;15.37;13.50;;;29.10;10.00;;;;;;5090300;28;20984;-71